createdAt,value
2019-03-27T00:01:31.461Z,7.40
2019-03-27T00:04:00.534Z,7.50
2019-03-27T00:06:29.566Z,7.40
2019-03-27T00:08:58.128Z,7.30
2019-03-27T00:11:27.075Z,7.30
2019-03-27T00:13:56.535Z,7.20
2019-03-27T00:16:25.435Z,7.30
2019-03-27T00:18:54.384Z,7.40
2019-03-27T00:21:23.151Z,7.40
2019-03-27T00:23:52.672Z,7.40
2019-03-27T00:26:21.696Z,7.40
2019-03-27T00:28:51.462Z,7.40
2019-03-27T00:31:20.908Z,7.40
2019-03-27T00:33:49.112Z,7.40
2019-03-27T00:36:18.471Z,7.50
2019-03-27T00:38:47.081Z,7.50
2019-03-27T00:41:15.673Z,7.50
2019-03-27T00:43:44.157Z,7.50
2019-03-27T00:46:12.644Z,7.50
2019-03-27T00:48:41.097Z,7.50
2019-03-27T00:51:09.792Z,7.40
2019-03-27T00:53:38.314Z,7.40
2019-03-27T00:56:06.867Z,7.40
2019-03-27T00:58:35.355Z,7.20
2019-03-27T01:01:13.415Z,7.20
2019-03-27T01:03:41.167Z,7.10
2019-03-27T01:06:09.129Z,7.10
2019-03-27T01:08:36.685Z,7.10
2019-03-27T01:11:04.852Z,7.00
2019-03-27T01:13:36.257Z,7.10
2019-03-27T01:16:05.031Z,7.00
2019-03-27T01:18:33.682Z,6.90
2019-03-27T01:21:02.341Z,6.80
2019-03-27T01:23:31.069Z,6.60
2019-03-27T01:25:59.633Z,6.50
2019-03-27T01:28:28.761Z,6.50
2019-03-27T01:30:57.342Z,6.50
2019-03-27T01:33:26.201Z,6.50
2019-03-27T01:35:54.663Z,6.40
2019-03-27T01:38:23.249Z,6.40
2019-03-27T01:40:51.984Z,6.40
2019-03-27T01:43:20.448Z,6.20
2019-03-27T01:45:53.203Z,6.00
2019-03-27T01:48:19.403Z,6.10
2019-03-27T01:50:48.109Z,6.10
2019-03-27T01:53:16.666Z,6.00
2019-03-27T01:55:47.770Z,6.10
2019-03-27T01:58:16.247Z,6.10
2019-03-27T02:00:44.842Z,6.10
2019-03-27T02:03:13.389Z,6.10
2019-03-27T02:05:41.852Z,6.10
2019-03-27T02:08:10.308Z,6.10
2019-03-27T02:10:39.455Z,6.10
2019-03-27T02:13:08.144Z,6.10
2019-03-27T02:15:37.546Z,6.30
2019-03-27T02:18:06.094Z,6.40
2019-03-27T02:20:34.906Z,6.40
2019-03-27T02:23:03.820Z,6.50
2019-03-27T02:25:34.098Z,6.50
2019-03-27T02:28:02.746Z,6.60
2019-03-27T02:30:31.661Z,6.60
2019-03-27T02:33:00.382Z,6.60
2019-03-27T02:35:29.466Z,6.60
2019-03-27T02:37:58.623Z,6.60
2019-03-27T02:40:27.863Z,6.50
2019-03-27T02:42:56.773Z,6.40
2019-03-27T02:45:25.489Z,6.40
2019-03-27T02:47:54.140Z,6.50
2019-03-27T02:50:22.691Z,6.60
2019-03-27T02:52:51.421Z,6.60
2019-03-27T02:55:19.974Z,6.60
2019-03-27T02:57:48.649Z,6.70
2019-03-27T03:00:18.648Z,6.70
2019-03-27T03:02:47.102Z,6.70
2019-03-27T03:05:15.770Z,6.70
2019-03-27T03:07:44.241Z,6.60
2019-03-27T03:10:13.462Z,6.50
2019-03-27T03:12:41.994Z,6.50
2019-03-27T03:15:11.046Z,6.50
2019-03-27T03:17:39.597Z,6.60
2019-03-27T03:20:09.140Z,6.40
2019-03-27T03:22:37.594Z,6.30
2019-03-27T03:25:06.361Z,6.50
2019-03-27T03:27:35.401Z,6.50
2019-03-27T03:30:05.553Z,6.30
2019-03-27T03:32:37.671Z,6.30
2019-03-27T03:35:06.556Z,6.20
2019-03-27T03:37:36.878Z,6.20
2019-03-27T03:40:06.118Z,6.20
2019-03-27T03:42:39.408Z,6.10
2019-03-27T03:45:08.607Z,6.10
2019-03-27T03:47:37.671Z,6.20
2019-03-27T03:50:06.599Z,6.40
2019-03-27T03:52:35.425Z,6.30
2019-03-27T03:55:04.555Z,6.20
2019-03-27T03:57:35.718Z,6.20
2019-03-27T04:00:05.819Z,6.20
2019-03-27T04:02:38.494Z,6.10
2019-03-27T04:05:12.054Z,6.10
2019-03-27T04:07:43.377Z,6.20
2019-03-27T04:10:12.178Z,6.30
2019-03-27T04:12:41.942Z,6.30
2019-03-27T04:15:11.127Z,6.30
2019-03-27T04:17:39.591Z,6.30
2019-03-27T04:20:08.495Z,6.30
2019-03-27T04:22:37.589Z,6.20
2019-03-27T04:25:06.775Z,6.40
2019-03-27T04:27:35.870Z,6.40
2019-03-27T04:30:05.296Z,6.40
2019-03-27T04:32:34.845Z,6.40
2019-03-27T04:35:03.767Z,6.40
2019-03-27T04:37:32.741Z,6.40
2019-03-27T04:40:01.453Z,6.30
2019-03-27T04:42:31.029Z,6.30
2019-03-27T04:45:00.181Z,6.30
2019-03-27T04:47:32.306Z,6.30
2019-03-27T04:49:59.728Z,6.30
2019-03-27T04:52:28.872Z,6.30
2019-03-27T04:54:57.586Z,6.20
2019-03-27T04:57:26.106Z,6.20
2019-03-27T04:59:58.021Z,6.20
2019-03-27T05:02:26.485Z,6.30
2019-03-27T05:04:55.335Z,6.30
2019-03-27T05:07:25.841Z,6.40
2019-03-27T05:09:54.561Z,6.40
2019-03-27T05:12:23.257Z,6.50
2019-03-27T05:14:51.918Z,6.30
2019-03-27T05:17:20.869Z,6.20
2019-03-27T05:19:49.490Z,6.10
2019-03-27T05:22:17.956Z,6.20
2019-03-27T05:24:46.413Z,6.30
2019-03-27T05:27:14.957Z,6.30
2019-03-27T05:29:44.880Z,6.40
2019-03-27T05:32:13.640Z,6.40
2019-03-27T05:34:42.366Z,6.40
2019-03-27T05:37:11.048Z,6.60
2019-03-27T05:39:39.612Z,6.60
2019-03-27T05:42:08.427Z,6.70
2019-03-27T05:44:37.444Z,6.90
2019-03-27T05:47:06.171Z,6.90
2019-03-27T05:49:34.782Z,7.00
2019-03-27T05:52:03.343Z,7.10
2019-03-27T05:54:31.833Z,7.30
2019-03-27T05:57:00.874Z,7.50
2019-03-27T05:59:29.965Z,7.60
2019-03-27T06:01:59.014Z,7.50
2019-03-27T06:04:28.365Z,7.50
2019-03-27T06:06:57.238Z,7.50
2019-03-27T06:09:30.950Z,7.50
2019-03-27T06:11:59.926Z,7.50
2019-03-27T06:14:28.964Z,7.70
2019-03-27T06:16:58.301Z,7.80
2019-03-27T06:19:27.465Z,7.90
2019-03-27T06:21:56.566Z,7.90
2019-03-27T06:24:26.060Z,8.00
2019-03-27T06:26:54.890Z,8.10
2019-03-27T06:29:23.735Z,8.10
2019-03-27T06:31:52.726Z,8.00
2019-03-27T06:34:21.787Z,8.10
2019-03-27T06:36:50.586Z,8.10
2019-03-27T06:39:19.666Z,8.00
2019-03-27T06:41:48.435Z,7.90
2019-03-27T06:44:18.486Z,7.80
2019-03-27T06:46:47.586Z,8.00
2019-03-27T06:49:16.838Z,8.00
2019-03-27T06:51:45.643Z,8.10
2019-03-27T06:54:14.254Z,8.20
2019-03-27T06:56:43.914Z,8.10
2019-03-27T06:59:12.629Z,8.10
2019-03-27T07:01:45.643Z,8.10
2019-03-27T07:04:15.259Z,8.20
2019-03-27T07:06:44.457Z,8.30
2019-03-27T07:09:13.437Z,8.50
2019-03-27T07:11:43.527Z,7.90
2019-03-27T07:14:12.502Z,7.70
2019-03-27T07:16:41.405Z,7.80
2019-03-27T07:19:10.117Z,8.10
2019-03-27T07:21:38.697Z,8.10
2019-03-27T07:24:07.356Z,8.10
2019-03-27T07:26:35.831Z,7.50
2019-03-27T07:29:04.418Z,7.60
2019-03-27T07:31:32.973Z,7.80
2019-03-27T07:34:01.842Z,7.80
2019-03-27T07:36:30.343Z,7.70
2019-03-27T07:39:10.486Z,7.90
2019-03-27T07:41:30.467Z,8.10
2019-03-27T07:43:59.305Z,8.20
2019-03-27T07:46:31.758Z,8.40
2019-03-27T07:49:00.334Z,8.50
2019-03-27T07:51:28.901Z,8.70
2019-03-27T07:53:57.354Z,8.60
2019-03-27T07:56:26.035Z,9.10
2019-03-27T07:58:54.485Z,9.40
2019-03-27T08:01:23.046Z,9.60
2019-03-27T08:03:52.178Z,9.90
2019-03-27T08:06:20.900Z,10.40
2019-03-27T08:08:49.521Z,10.60
2019-03-27T08:11:18.329Z,10.70
2019-03-27T08:13:46.905Z,11.10
2019-03-27T08:16:15.589Z,11.30
2019-03-27T08:18:44.813Z,10.90
2019-03-27T08:21:13.659Z,11.50
2019-03-27T08:23:42.350Z,11.30
2019-03-27T08:26:11.520Z,12.20
2019-03-27T08:28:40.289Z,12.40
2019-03-27T08:31:08.868Z,12.60
2019-03-27T08:33:37.450Z,12.20
2019-03-27T08:36:06.848Z,12.20
2019-03-27T08:38:35.569Z,12.90
2019-03-27T08:41:04.313Z,13.00
2019-03-27T08:43:32.875Z,12.50
2019-03-27T08:46:01.775Z,12.20
2019-03-27T08:48:30.223Z,12.20
2019-03-27T08:50:58.777Z,12.10
2019-03-27T08:53:27.420Z,12.40
2019-03-27T08:55:56.366Z,13.00
2019-03-27T08:58:24.908Z,13.70
2019-03-27T09:00:53.785Z,14.10
2019-03-27T09:03:22.481Z,16.40
2019-03-27T09:05:55.066Z,17.50
2019-03-27T09:08:24.097Z,16.00
2019-03-27T09:10:52.766Z,14.80
2019-03-27T09:13:21.801Z,15.20
2019-03-27T09:15:50.505Z,16.60
2019-03-27T09:18:20.764Z,18.10
2019-03-27T09:20:49.879Z,18.50
2019-03-27T09:23:18.554Z,19.00
2019-03-27T09:25:47.394Z,18.20
2019-03-27T09:28:16.565Z,18.40
2019-03-27T09:30:47.069Z,16.80
2019-03-27T09:33:15.942Z,15.40
2019-03-27T09:35:44.792Z,15.90
2019-03-27T09:38:13.501Z,15.20
2019-03-27T09:40:42.150Z,14.10
2019-03-27T09:43:12.385Z,14.90
2019-03-27T09:45:41.225Z,14.90
2019-03-27T09:48:10.010Z,14.80
2019-03-27T09:50:38.801Z,13.80
2019-03-27T09:53:08.313Z,13.60
2019-03-27T09:55:38.094Z,13.20
2019-03-27T09:58:06.775Z,12.90
2019-03-27T10:00:57.755Z,13.30
2019-03-27T10:03:26.421Z,14.10
2019-03-27T10:05:55.007Z,14.80
2019-03-27T10:08:23.556Z,14.40
2019-03-27T10:10:52.100Z,14.80
2019-03-27T10:13:21.875Z,14.80
2019-03-27T10:15:50.605Z,14.30
2019-03-27T10:18:19.260Z,13.80
2019-03-27T10:20:47.703Z,14.00
2019-03-27T10:23:16.530Z,14.30
2019-03-27T10:25:47.491Z,14.20
2019-03-27T10:28:16.684Z,14.10
2019-03-27T10:30:45.518Z,14.00
2019-03-27T10:33:15.353Z,14.40
2019-03-27T10:35:48.351Z,14.50
2019-03-27T10:38:16.901Z,15.00
2019-03-27T10:40:46.008Z,15.40
2019-03-27T10:43:14.634Z,15.50
2019-03-27T10:45:43.827Z,15.60
2019-03-27T10:48:14.425Z,15.40
2019-03-27T10:50:43.737Z,15.40
2019-03-27T10:53:12.632Z,14.80
2019-03-27T10:55:41.685Z,14.40
2019-03-27T10:58:11.175Z,14.20
2019-03-27T11:00:41.621Z,14.20
2019-03-27T11:03:10.195Z,14.10
2019-03-27T11:05:39.132Z,13.70
2019-03-27T11:08:11.108Z,13.20
2019-03-27T11:10:40.589Z,13.50
2019-03-27T11:13:10.014Z,13.60
2019-03-27T11:15:38.810Z,14.00
2019-03-27T11:18:07.463Z,14.20
2019-03-27T11:20:36.309Z,14.50
2019-03-27T11:23:10.462Z,15.00
2019-03-27T11:25:39.487Z,15.40
2019-03-27T11:28:08.987Z,14.70
2019-03-27T11:30:39.819Z,13.70
2019-03-27T11:33:12.515Z,13.60
2019-03-27T11:35:41.316Z,13.80
2019-03-27T11:38:10.474Z,14.10
2019-03-27T11:40:39.405Z,14.50
2019-03-27T11:43:08.830Z,14.60
2019-03-27T11:45:38.083Z,14.60
2019-03-27T11:48:08.315Z,14.60
2019-03-27T11:50:44.549Z,14.60
2019-03-27T11:53:08.102Z,14.50
2019-03-27T11:55:46.352Z,14.40
2019-03-27T11:58:15.051Z,14.50
2019-03-27T12:00:54.386Z,14.40
2019-03-27T12:03:15.816Z,14.50
2019-03-27T12:05:45.888Z,14.80
2019-03-27T12:08:15.542Z,14.40
2019-03-27T12:10:44.826Z,14.50
2019-03-27T12:13:14.717Z,14.40
2019-03-27T12:15:48.727Z,13.80
2019-03-27T12:18:18.126Z,13.90
2019-03-27T12:20:58.271Z,13.70
2019-03-27T12:23:17.665Z,13.90
2019-03-27T12:25:55.408Z,13.70
2019-03-27T12:28:23.377Z,13.90
2019-03-27T12:30:52.204Z,14.10
2019-03-27T12:33:22.353Z,14.30
2019-03-27T12:35:55.608Z,14.40
2019-03-27T12:38:23.175Z,14.80
2019-03-27T12:40:52.170Z,15.10
2019-03-27T12:43:21.426Z,15.30
2019-03-27T12:45:50.677Z,15.40
2019-03-27T12:48:23.529Z,15.30
2019-03-27T12:50:52.406Z,15.40
2019-03-27T12:53:21.234Z,15.50
2019-03-27T12:55:50.549Z,15.00
2019-03-27T12:58:19.733Z,15.20
2019-03-27T13:00:52.403Z,15.50
2019-03-27T13:03:21.094Z,15.50
2019-03-27T13:05:49.813Z,15.30
2019-03-27T13:08:18.622Z,15.20
2019-03-27T13:10:47.188Z,15.20
2019-03-27T13:13:18.592Z,15.10
2019-03-27T13:15:47.046Z,14.60
2019-03-27T13:18:15.715Z,14.50
2019-03-27T13:20:44.146Z,14.60
2019-03-27T13:23:13.251Z,14.80
2019-03-27T13:25:42.323Z,14.80
2019-03-27T13:28:10.771Z,14.70
2019-03-27T13:30:39.467Z,14.50
2019-03-27T13:33:07.932Z,14.40
2019-03-27T13:35:36.781Z,14.50
2019-03-27T13:38:06.186Z,14.60
2019-03-27T13:40:35.153Z,14.50
2019-03-27T13:43:04.354Z,14.30
2019-03-27T13:45:32.902Z,14.30
2019-03-27T13:48:02.315Z,14.20
2019-03-27T13:50:31.572Z,14.60
2019-03-27T13:53:00.250Z,15.00
2019-03-27T13:55:29.092Z,14.90
2019-03-27T13:57:57.525Z,14.40
2019-03-27T14:00:32.957Z,14.30
2019-03-27T14:03:02.162Z,14.20
2019-03-27T14:05:30.722Z,13.80
2019-03-27T14:08:00.094Z,13.80
2019-03-27T14:10:31.383Z,13.90
2019-03-27T14:13:01.375Z,13.90
2019-03-27T14:15:30.522Z,13.90
2019-03-27T14:17:59.721Z,13.60
2019-03-27T14:20:28.633Z,13.70
2019-03-27T14:22:59.686Z,13.90
2019-03-27T14:25:28.489Z,13.80
2019-03-27T14:27:57.302Z,13.60
2019-03-27T14:30:48.593Z,13.70
2019-03-27T14:33:17.241Z,14.10
2019-03-27T14:35:46.161Z,14.10
2019-03-27T14:38:16.077Z,14.30
2019-03-27T14:40:46.039Z,14.20
2019-03-27T14:43:15.304Z,13.80
2019-03-27T14:45:44.688Z,13.60
2019-03-27T14:48:14.807Z,13.80
2019-03-27T14:50:47.450Z,13.60
2019-03-27T14:53:16.827Z,14.00
2019-03-27T14:55:45.765Z,14.40
2019-03-27T14:58:14.989Z,14.50
2019-03-27T15:01:09.618Z,14.10
2019-03-27T15:03:39.183Z,14.30
2019-03-27T15:06:08.019Z,14.60
2019-03-27T15:08:36.862Z,14.90
2019-03-27T15:11:05.561Z,14.60
2019-03-27T15:13:34.478Z,14.80
2019-03-27T15:16:03.212Z,14.60
2019-03-27T15:18:32.304Z,14.60
2019-03-27T15:21:01.005Z,14.50
2019-03-27T15:23:30.187Z,14.00
2019-03-27T15:25:59.274Z,14.00
2019-03-27T15:28:28.191Z,14.10
2019-03-27T15:30:57.553Z,14.10
2019-03-27T15:33:26.397Z,14.30
2019-03-27T15:35:56.222Z,13.90
2019-03-27T15:38:24.776Z,13.70
2019-03-27T15:40:53.800Z,13.90
2019-03-27T15:43:23.083Z,14.30
2019-03-27T15:45:52.450Z,14.30
2019-03-27T15:48:21.330Z,14.20
2019-03-27T15:50:57.086Z,14.30
2019-03-27T15:53:20.725Z,14.20
2019-03-27T15:55:49.548Z,13.90
2019-03-27T15:58:18.138Z,13.60
2019-03-27T16:00:46.825Z,13.50
2019-03-27T16:03:16.155Z,13.20
2019-03-27T16:05:45.754Z,13.20
2019-03-27T16:08:18.833Z,13.30
2019-03-27T16:10:47.922Z,13.40
2019-03-27T16:13:17.021Z,13.40
2019-03-27T16:15:45.725Z,13.60
2019-03-27T16:18:16.515Z,13.50
2019-03-27T16:20:45.362Z,13.40
2019-03-27T16:23:18.179Z,13.20
2019-03-27T16:25:46.969Z,13.20
2019-03-27T16:28:15.722Z,13.10
2019-03-27T16:30:44.502Z,13.20
2019-03-27T16:33:13.183Z,13.10
2019-03-27T16:35:41.805Z,13.20
2019-03-27T16:38:10.415Z,13.10
2019-03-27T16:40:46.109Z,13.10
2019-03-27T16:43:15.604Z,13.20
2019-03-27T16:45:44.329Z,13.20
2019-03-27T16:48:13.845Z,13.30
2019-03-27T16:50:42.530Z,13.30
2019-03-27T16:53:11.252Z,13.30
2019-03-27T16:55:40.934Z,13.20
2019-03-27T16:58:09.490Z,13.00
2019-03-27T17:00:38.131Z,13.10
2019-03-27T17:03:06.881Z,13.20
2019-03-27T17:05:35.866Z,13.00
2019-03-27T17:08:08.577Z,12.90
2019-03-27T17:10:37.281Z,13.00
2019-03-27T17:13:05.881Z,12.90
2019-03-27T17:15:34.730Z,12.90
2019-03-27T17:18:04.101Z,12.70
2019-03-27T17:20:32.793Z,12.50
2019-03-27T17:23:01.457Z,12.50
2019-03-27T17:25:30.136Z,12.50
2019-03-27T17:27:58.867Z,12.30
2019-03-27T17:30:27.622Z,12.20
2019-03-27T17:32:56.294Z,12.20
2019-03-27T17:35:24.986Z,12.20
2019-03-27T17:37:53.582Z,12.00
2019-03-27T17:40:22.151Z,12.10
2019-03-27T17:42:50.730Z,12.20
2019-03-27T17:45:19.515Z,12.10
2019-03-27T17:47:48.205Z,12.20
2019-03-27T17:50:17.166Z,12.20
2019-03-27T17:52:45.949Z,12.10
2019-03-27T17:55:14.632Z,12.00
2019-03-27T17:57:43.120Z,12.00
2019-03-27T18:00:14.125Z,12.00
2019-03-27T18:02:42.893Z,12.00
2019-03-27T18:05:14.506Z,11.90
2019-03-27T18:07:43.254Z,11.90
2019-03-27T18:10:12.034Z,11.90
2019-03-27T18:12:40.840Z,11.80
2019-03-27T18:15:09.818Z,11.80
2019-03-27T18:17:39.830Z,11.80
2019-03-27T18:20:08.596Z,11.80
2019-03-27T18:22:37.138Z,11.80
2019-03-27T18:25:05.913Z,11.70
2019-03-27T18:27:34.602Z,11.60
2019-03-27T18:30:05.464Z,11.60
2019-03-27T18:32:34.013Z,11.70
2019-03-27T18:35:03.105Z,11.50
2019-03-27T18:37:31.893Z,11.50
2019-03-27T18:40:00.975Z,11.60
2019-03-27T18:42:30.806Z,11.50
2019-03-27T18:44:59.462Z,11.50
2019-03-27T18:47:28.066Z,11.50
2019-03-27T18:49:56.621Z,11.50
2019-03-27T18:52:25.164Z,11.40
2019-03-27T18:54:56.551Z,11.30
2019-03-27T18:57:25.133Z,11.20
2019-03-27T18:59:53.925Z,11.10
2019-03-27T19:02:22.740Z,11.10
2019-03-27T19:04:51.698Z,11.10
2019-03-27T19:07:24.278Z,11.10
2019-03-27T19:09:53.074Z,11.00
2019-03-27T19:12:21.694Z,11.00
2019-03-27T19:14:50.343Z,11.00
2019-03-27T19:17:18.941Z,11.10
2019-03-27T19:19:50.694Z,11.20
2019-03-27T19:22:19.274Z,11.20
2019-03-27T19:24:47.892Z,11.20
2019-03-27T19:27:16.550Z,11.30
2019-03-27T19:29:45.225Z,11.40
2019-03-27T19:32:18.198Z,11.30
2019-03-27T19:34:47.395Z,11.50
2019-03-27T19:37:15.920Z,11.40
2019-03-27T19:39:44.698Z,11.50
2019-03-27T19:42:13.564Z,11.50
2019-03-27T19:44:43.385Z,11.50
2019-03-27T19:47:12.118Z,11.50
2019-03-27T19:49:40.956Z,11.70
2019-03-27T19:52:09.540Z,11.70
2019-03-27T19:54:37.989Z,11.80
2019-03-27T19:57:14.206Z,11.80
2019-03-27T19:59:42.889Z,11.70
2019-03-27T20:02:11.650Z,11.70
2019-03-27T20:04:40.214Z,11.80
2019-03-27T20:07:15.028Z,11.80
2019-03-27T20:09:43.242Z,11.90
2019-03-27T20:12:12.211Z,11.90
2019-03-27T20:14:42.502Z,12.00
2019-03-27T20:17:15.652Z,12.00
2019-03-27T20:19:44.365Z,11.90
2019-03-27T20:22:13.243Z,11.90
2019-03-27T20:24:42.242Z,11.80
2019-03-27T20:27:11.298Z,11.80
2019-03-27T20:29:42.326Z,11.90
2019-03-27T20:32:11.219Z,11.90
2019-03-27T20:34:40.214Z,11.90
2019-03-27T20:37:09.029Z,12.00
2019-03-27T20:39:38.601Z,11.80
2019-03-27T20:42:12.282Z,11.90
2019-03-27T20:44:40.866Z,11.80
2019-03-27T20:47:09.642Z,11.70
2019-03-27T20:49:38.650Z,11.70
2019-03-27T20:52:07.607Z,11.60
2019-03-27T20:54:37.938Z,11.70
2019-03-27T20:57:07.204Z,11.50
2019-03-27T20:59:36.155Z,11.50
2019-03-27T21:02:04.959Z,11.60
2019-03-27T21:04:37.213Z,11.50
2019-03-27T21:07:06.058Z,11.40
2019-03-27T21:09:34.543Z,11.40
2019-03-27T21:12:03.263Z,11.40
2019-03-27T21:14:31.852Z,11.40
2019-03-27T21:17:03.858Z,11.40
2019-03-27T21:19:32.339Z,11.50
2019-03-27T21:22:00.893Z,11.50
2019-03-27T21:24:29.595Z,11.50
2019-03-27T21:26:58.709Z,11.60
2019-03-27T21:29:29.511Z,11.60
2019-03-27T21:31:58.604Z,11.60
2019-03-27T21:34:27.169Z,11.60
2019-03-27T21:36:56.489Z,11.60
2019-03-27T21:39:29.843Z,11.60
2019-03-27T21:41:59.018Z,11.60
2019-03-27T21:44:27.497Z,11.50
2019-03-27T21:46:56.569Z,11.40
2019-03-27T21:49:25.401Z,11.40
2019-03-27T21:51:55.241Z,11.40
2019-03-27T21:54:25.596Z,11.40
2019-03-27T21:56:54.645Z,11.50
2019-03-27T21:59:23.897Z,11.40
2019-03-27T22:01:56.714Z,11.30
2019-03-27T22:04:26.044Z,11.30
2019-03-27T22:06:55.137Z,11.30
2019-03-27T22:09:23.949Z,11.30
2019-03-27T22:11:53.042Z,11.40
2019-03-27T22:14:23.615Z,11.40
2019-03-27T22:16:52.427Z,11.30
2019-03-27T22:19:21.349Z,11.30
2019-03-27T22:21:50.494Z,11.30
2019-03-27T22:24:23.135Z,11.10
2019-03-27T22:26:52.231Z,11.10
2019-03-27T22:29:20.211Z,11.10
2019-03-27T22:31:48.196Z,11.20
2019-03-27T22:34:16.985Z,11.20
2019-03-27T22:36:45.977Z,11.30
2019-03-27T22:39:14.625Z,11.20
2019-03-27T22:41:43.273Z,11.20
2019-03-27T22:44:11.921Z,11.20
2019-03-27T22:46:40.655Z,11.30
2019-03-27T22:49:09.109Z,11.30
2019-03-27T22:51:37.623Z,11.20
2019-03-27T22:54:06.341Z,11.10
2019-03-27T22:56:34.820Z,11.10
2019-03-27T22:59:03.452Z,11.20
2019-03-27T23:01:42.345Z,11.30
2019-03-27T23:04:11.394Z,11.30
2019-03-27T23:06:39.979Z,11.30
2019-03-27T23:09:08.904Z,11.30
2019-03-27T23:11:37.929Z,11.10
2019-03-27T23:14:06.825Z,10.90
2019-03-27T23:16:35.814Z,10.90
2019-03-27T23:19:04.884Z,11.00
2019-03-27T23:21:33.729Z,10.90
2019-03-27T23:24:02.964Z,10.80
2019-03-27T23:26:32.034Z,10.90
2019-03-27T23:29:00.876Z,10.70
2019-03-27T23:31:29.677Z,10.60
2019-03-27T23:34:00.388Z,10.70
2019-03-27T23:36:28.685Z,10.80
2019-03-27T23:38:57.346Z,10.70
2019-03-27T23:41:26.800Z,10.80
2019-03-27T23:43:55.638Z,10.70
2019-03-27T23:46:24.092Z,10.80
2019-03-27T23:48:52.656Z,10.80
2019-03-27T23:51:21.361Z,10.80
2019-03-27T23:53:50.107Z,10.80
2019-03-27T23:56:18.679Z,10.90
2019-03-27T23:58:47.238Z,10.80
